createdAt,value
2022-12-23T00:01:24.184Z,10.22
2022-12-23T00:03:56.348Z,10.22
2022-12-23T00:06:23.890Z,10.23
2022-12-23T00:08:58.394Z,10.23
2022-12-23T00:11:28.754Z,10.23
2022-12-23T00:14:20.545Z,10.22
2022-12-23T00:16:51.027Z,10.20
2022-12-23T00:19:18.815Z,10.21
2022-12-23T00:21:46.981Z,10.22
2022-12-23T00:24:14.407Z,10.21
2022-12-23T00:26:41.969Z,10.21
2022-12-23T00:29:09.415Z,10.22
2022-12-23T00:31:36.937Z,10.21
2022-12-23T00:34:04.460Z,10.22
2022-12-23T00:36:32.021Z,10.22
2022-12-23T00:39:18.712Z,10.22
2022-12-23T00:42:04.788Z,10.20
2022-12-23T00:44:32.459Z,10.18
2022-12-23T00:46:59.941Z,10.20
2022-12-23T00:49:42.482Z,10.20
2022-12-23T00:52:18.126Z,10.20
2022-12-23T00:54:45.577Z,10.21
2022-12-23T00:57:13.083Z,10.22
2022-12-23T00:59:40.515Z,10.23
2022-12-23T01:02:30.601Z,10.22
2022-12-23T01:05:24.241Z,10.21
2022-12-23T01:07:51.739Z,10.19
2022-12-23T01:10:19.240Z,10.20
2022-12-23T01:12:46.661Z,10.21
2022-12-23T01:15:14.254Z,10.21
2022-12-23T01:17:41.671Z,10.22
2022-12-23T01:20:09.672Z,10.21
2022-12-23T01:22:37.113Z,10.21
2022-12-23T01:25:05.097Z,10.22
2022-12-23T01:27:32.559Z,10.20
2022-12-23T01:30:00.075Z,10.19
2022-12-23T01:32:27.542Z,10.20
2022-12-23T01:34:54.988Z,10.20
2022-12-23T01:37:22.839Z,10.19
2022-12-23T01:39:50.314Z,10.21
2022-12-23T01:42:39.326Z,10.21
2022-12-23T01:45:21.301Z,10.21
2022-12-23T01:47:55.960Z,10.20
2022-12-23T01:50:46.677Z,10.20
2022-12-23T01:53:24.316Z,10.18
2022-12-23T01:55:59.243Z,10.19
2022-12-23T01:58:34.612Z,10.18
2022-12-23T02:01:21.407Z,10.19
2022-12-23T02:03:54.782Z,10.19
2022-12-23T02:06:46.750Z,10.20
2022-12-23T02:09:27.384Z,10.13
2022-12-23T02:12:38.587Z,10.15
2022-12-23T02:15:52.133Z,10.14
2022-12-23T02:19:12.106Z,10.16
2022-12-23T02:22:00.982Z,10.14
2022-12-23T02:25:14.220Z,10.15
2022-12-23T02:28:35.740Z,10.15
2022-12-23T02:31:23.949Z,10.14
2022-12-23T02:34:16.628Z,10.14
2022-12-23T02:37:04.824Z,10.15
2022-12-23T02:40:01.383Z,10.15
2022-12-23T02:42:47.316Z,10.15
2022-12-23T02:45:35.242Z,10.15
2022-12-23T02:48:22.031Z,10.15
2022-12-23T02:50:54.638Z,10.15
2022-12-23T02:53:32.233Z,10.16
2022-12-23T02:56:03.674Z,10.15
2022-12-23T02:58:45.062Z,10.15
2022-12-23T03:01:16.368Z,10.14
2022-12-23T03:03:47.671Z,10.15
2022-12-23T03:06:25.645Z,10.15
2022-12-23T03:08:59.063Z,10.15
2022-12-23T03:11:40.236Z,10.14
2022-12-23T03:14:36.440Z,10.15
2022-12-23T03:17:30.634Z,10.13
2022-12-23T03:20:11.617Z,10.12
2022-12-23T03:22:55.420Z,10.13
2022-12-23T03:25:44.946Z,10.15
2022-12-23T03:28:41.613Z,10.15
2022-12-23T03:31:17.213Z,10.13
2022-12-23T03:33:53.310Z,10.14
2022-12-23T03:36:28.455Z,10.15
2022-12-23T03:38:57.375Z,10.15
2022-12-23T03:41:33.110Z,10.15
2022-12-23T03:44:13.758Z,10.15
2022-12-23T03:46:50.300Z,10.16
2022-12-23T03:49:31.159Z,10.17
2022-12-23T03:52:21.164Z,10.16
2022-12-23T03:54:57.799Z,10.15
2022-12-23T03:57:40.299Z,10.15
2022-12-23T04:00:08.844Z,10.14
2022-12-23T04:03:02.798Z,10.13
2022-12-23T04:05:37.584Z,10.11
2022-12-23T04:08:21.527Z,10.11
2022-12-23T04:10:50.056Z,10.11
2022-12-23T04:13:17.554Z,10.12
2022-12-23T04:15:45.544Z,10.13
2022-12-23T04:18:13.049Z,10.11
2022-12-23T04:20:40.589Z,10.12
2022-12-23T04:23:08.083Z,10.11
2022-12-23T04:25:35.567Z,10.11
2022-12-23T04:28:03.245Z,10.09
2022-12-23T04:30:34.356Z,10.08
2022-12-23T04:33:02.893Z,10.04
2022-12-23T04:35:31.188Z,10.04
2022-12-23T04:37:58.636Z,10.05
2022-12-23T04:40:26.138Z,10.05
2022-12-23T04:42:53.672Z,10.03
2022-12-23T04:45:21.171Z,10.03
2022-12-23T04:47:48.675Z,10.02
2022-12-23T04:50:17.257Z,10.01
2022-12-23T04:52:44.783Z,10.00
2022-12-23T04:55:12.270Z,9.99
2022-12-23T04:57:40.042Z,10.00
2022-12-23T05:00:08.519Z,9.98
2022-12-23T05:02:36.101Z,9.98
2022-12-23T05:05:04.461Z,9.98
2022-12-23T05:07:32.034Z,9.98
2022-12-23T05:10:02.000Z,9.98
2022-12-23T05:12:31.213Z,9.98
2022-12-23T05:14:58.726Z,9.98
2022-12-23T05:17:26.226Z,9.97
2022-12-23T05:19:53.735Z,9.96
2022-12-23T05:22:21.202Z,9.95
2022-12-23T05:24:48.668Z,9.93
2022-12-23T05:27:16.450Z,9.93
2022-12-23T05:29:43.890Z,9.92
2022-12-23T05:32:11.389Z,9.92
2022-12-23T05:34:38.982Z,9.92
2022-12-23T05:37:06.760Z,9.94
2022-12-23T05:39:34.238Z,9.93
2022-12-23T05:42:01.725Z,9.94
2022-12-23T05:44:29.152Z,9.94
2022-12-23T05:46:56.625Z,9.95
2022-12-23T05:49:25.378Z,9.95
2022-12-23T05:51:52.889Z,9.95
2022-12-23T05:54:20.373Z,9.97
2022-12-23T05:56:47.926Z,9.97
2022-12-23T05:59:15.364Z,9.97
2022-12-23T06:01:42.924Z,9.97
2022-12-23T06:04:10.633Z,9.97
2022-12-23T06:06:38.271Z,9.99
2022-12-23T06:09:05.682Z,9.99
2022-12-23T06:11:33.137Z,9.98
2022-12-23T06:14:00.697Z,9.98
2022-12-23T06:16:28.274Z,9.98
2022-12-23T06:18:56.399Z,9.99
2022-12-23T06:21:25.526Z,9.99
2022-12-23T06:23:53.175Z,9.98
2022-12-23T06:26:20.989Z,9.98
2022-12-23T06:28:48.473Z,9.97
2022-12-23T06:31:16.231Z,9.96
2022-12-23T06:33:44.217Z,9.95
2022-12-23T06:36:11.747Z,9.97
2022-12-23T06:38:39.149Z,9.98
2022-12-23T06:41:07.686Z,9.96
2022-12-23T06:43:35.146Z,9.95
2022-12-23T06:46:02.768Z,9.95
2022-12-23T06:48:30.323Z,9.95
2022-12-23T06:50:57.755Z,9.94
2022-12-23T06:53:25.171Z,9.94
2022-12-23T06:56:01.149Z,9.94
2022-12-23T06:58:28.818Z,9.93
2022-12-23T07:00:56.609Z,9.91
2022-12-23T07:03:24.118Z,9.90
2022-12-23T07:05:52.335Z,9.88
2022-12-23T07:08:20.753Z,9.87
2022-12-23T07:10:48.198Z,9.87
2022-12-23T07:13:16.865Z,9.86
2022-12-23T07:15:44.298Z,9.84
2022-12-23T07:18:11.724Z,9.83
2022-12-23T07:20:39.361Z,9.83
2022-12-23T07:23:06.858Z,9.81
2022-12-23T07:25:34.277Z,9.79
2022-12-23T07:28:01.725Z,9.79
2022-12-23T07:30:29.307Z,9.80
2022-12-23T07:32:56.942Z,9.80
2022-12-23T07:35:25.617Z,9.79
2022-12-23T07:37:55.614Z,9.80
2022-12-23T07:40:25.047Z,9.79
2022-12-23T07:42:58.717Z,9.82
2022-12-23T07:45:28.958Z,9.80
2022-12-23T07:48:00.030Z,9.79
2022-12-23T07:50:28.529Z,9.79
2022-12-23T07:52:56.333Z,9.78
2022-12-23T07:55:23.908Z,9.78
2022-12-23T07:57:52.946Z,9.78
2022-12-23T08:00:21.167Z,9.79
2022-12-23T08:02:49.127Z,9.80
2022-12-23T08:05:16.913Z,9.79
2022-12-23T08:07:45.303Z,9.80
2022-12-23T08:10:13.111Z,9.80
2022-12-23T08:12:40.766Z,9.81
2022-12-23T08:15:09.381Z,9.81
2022-12-23T08:17:36.820Z,9.81
2022-12-23T08:20:04.752Z,9.82
2022-12-23T08:22:32.243Z,9.83
2022-12-23T08:24:59.918Z,9.86
2022-12-23T08:27:27.508Z,9.86
2022-12-23T08:29:55.937Z,9.89
2022-12-23T08:32:27.439Z,9.89
2022-12-23T08:34:58.047Z,9.89
2022-12-23T08:37:25.738Z,9.89
2022-12-23T08:39:53.286Z,9.88
2022-12-23T08:42:20.763Z,9.89
2022-12-23T08:44:48.195Z,9.89
2022-12-23T08:47:15.721Z,9.89
2022-12-23T08:49:43.199Z,9.90
2022-12-23T08:52:10.731Z,9.90
2022-12-23T08:54:38.192Z,9.92
2022-12-23T08:57:05.778Z,9.92
2022-12-23T08:59:33.335Z,9.92
2022-12-23T09:02:02.163Z,9.91
2022-12-23T09:04:29.775Z,9.91
2022-12-23T09:06:57.279Z,9.90
2022-12-23T09:09:24.707Z,9.91
2022-12-23T09:11:52.240Z,9.91
2022-12-23T09:14:19.726Z,9.92
2022-12-23T09:16:51.781Z,9.92
2022-12-23T09:19:19.361Z,9.92
2022-12-23T09:21:46.777Z,9.91
2022-12-23T09:24:14.262Z,9.92
2022-12-23T09:26:41.701Z,9.92
2022-12-23T09:29:09.146Z,9.93
2022-12-23T09:31:38.062Z,9.94
2022-12-23T09:34:06.220Z,9.96
2022-12-23T09:36:33.954Z,9.95
2022-12-23T09:39:01.431Z,9.96
2022-12-23T09:42:01.505Z,9.97
2022-12-23T09:45:11.514Z,9.96
2022-12-23T09:47:42.896Z,9.92
2022-12-23T09:50:30.136Z,9.94
2022-12-23T09:53:00.763Z,9.93
2022-12-23T09:56:00.323Z,9.95
2022-12-23T09:59:22.047Z,9.95
2022-12-23T10:02:05.457Z,9.94
2022-12-23T10:05:02.824Z,9.96
2022-12-23T10:07:40.975Z,9.94
2022-12-23T10:10:39.207Z,9.95
2022-12-23T10:13:21.181Z,9.94
2022-12-23T10:15:52.050Z,9.94
2022-12-23T10:18:42.267Z,9.93
2022-12-23T10:21:26.318Z,9.94
2022-12-23T10:23:55.324Z,9.94
2022-12-23T10:26:25.872Z,9.96
2022-12-23T10:29:05.236Z,9.95
2022-12-23T10:32:01.318Z,9.93
2022-12-23T10:35:08.232Z,9.93
2022-12-23T10:37:55.340Z,9.93
2022-12-23T10:41:08.910Z,9.92
2022-12-23T10:44:14.774Z,9.91
2022-12-23T10:46:53.239Z,9.90
2022-12-23T10:50:08.846Z,9.90
2022-12-23T10:52:43.062Z,9.87
2022-12-23T10:55:35.525Z,9.88
2022-12-23T10:58:14.537Z,9.86
2022-12-23T11:01:12.009Z,9.87
2022-12-23T11:04:01.803Z,9.86
2022-12-23T11:06:37.073Z,9.87
2022-12-23T11:09:12.498Z,9.87
2022-12-23T11:11:57.415Z,9.86
2022-12-23T11:14:50.796Z,9.85
2022-12-23T11:17:24.654Z,9.84
2022-12-23T11:20:20.203Z,9.85
2022-12-23T11:22:51.846Z,9.84
2022-12-23T11:25:27.663Z,9.86
2022-12-23T11:28:02.336Z,9.86
2022-12-23T11:30:35.365Z,9.88
2022-12-23T11:33:03.259Z,9.89
2022-12-23T11:35:37.456Z,9.89
2022-12-23T11:38:13.910Z,9.88
2022-12-23T11:40:46.915Z,9.90
2022-12-23T11:43:16.976Z,9.91
2022-12-23T11:45:44.454Z,9.90
2022-12-23T11:48:30.254Z,9.91
2022-12-23T11:51:01.874Z,9.90
2022-12-23T11:53:30.230Z,9.85
2022-12-23T11:56:07.229Z,9.86
2022-12-23T11:58:47.495Z,9.87
2022-12-23T12:01:24.095Z,9.86
2022-12-23T12:03:59.627Z,9.87
2022-12-23T12:06:29.351Z,9.87
2022-12-23T12:09:00.001Z,9.87
2022-12-23T12:11:36.916Z,9.86
2022-12-23T12:14:08.362Z,9.85
2022-12-23T12:17:14.263Z,9.86
2022-12-23T12:20:02.550Z,9.83
2022-12-23T12:22:49.376Z,9.83
2022-12-23T12:25:25.214Z,9.81
2022-12-23T12:28:01.915Z,9.82
2022-12-23T12:30:43.696Z,9.83
2022-12-23T12:33:21.193Z,9.78
2022-12-23T12:36:03.314Z,9.76
2022-12-23T12:38:37.961Z,9.78
2022-12-23T12:41:14.467Z,9.80
2022-12-23T12:44:36.876Z,9.81
2022-12-23T12:47:44.416Z,9.74
2022-12-23T12:50:20.250Z,9.76
2022-12-23T12:52:53.940Z,9.77
2022-12-23T12:55:37.957Z,9.79
2022-12-23T12:58:18.681Z,9.81
2022-12-23T13:01:23.812Z,9.85
2022-12-23T13:04:40.610Z,9.90
2022-12-23T13:07:39.333Z,9.93
2022-12-23T13:10:21.982Z,9.93
2022-12-23T13:13:27.769Z,9.96
2022-12-23T13:16:16.384Z,9.95
2022-12-23T13:19:23.428Z,9.95
2022-12-23T13:22:15.335Z,9.94
2022-12-23T13:24:51.816Z,9.89
2022-12-23T13:28:22.413Z,9.90
2022-12-23T13:31:14.814Z,9.87
2022-12-23T13:33:54.588Z,9.85
2022-12-23T13:37:07.114Z,9.89
2022-12-23T13:40:32.868Z,9.89
2022-12-23T13:43:13.449Z,9.86
2022-12-23T13:45:43.796Z,9.85
2022-12-23T13:48:48.302Z,9.85
2022-12-23T13:51:29.893Z,9.84
2022-12-23T13:54:36.067Z,9.82
2022-12-23T13:57:20.953Z,9.79
2022-12-23T14:00:32.445Z,9.75
2022-12-23T14:03:02.845Z,9.72
2022-12-23T14:05:41.123Z,9.74
2022-12-23T14:08:22.979Z,9.74
2022-12-23T14:11:01.155Z,9.67
2022-12-23T14:13:40.677Z,9.67
2022-12-23T14:16:20.295Z,9.69
2022-12-23T14:19:18.759Z,9.69
2022-12-23T14:22:02.282Z,9.69
2022-12-23T14:25:39.762Z,9.72
2022-12-23T14:28:36.317Z,9.71
2022-12-23T14:31:05.967Z,9.68
2022-12-23T14:33:37.991Z,9.68
2022-12-23T14:36:26.682Z,9.69
2022-12-23T14:39:12.707Z,9.70
2022-12-23T14:41:55.619Z,9.69
2022-12-23T14:44:28.065Z,9.66
2022-12-23T14:46:58.208Z,9.66
2022-12-23T14:49:44.023Z,9.67
2022-12-23T14:52:44.248Z,9.67
2022-12-23T14:55:31.307Z,9.65
2022-12-23T14:58:20.181Z,9.66
2022-12-23T15:00:52.883Z,9.64
2022-12-23T15:03:20.710Z,9.63
2022-12-23T15:05:49.095Z,9.61
2022-12-23T15:08:33.090Z,9.61
2022-12-23T15:11:00.987Z,9.58
2022-12-23T15:13:31.849Z,9.59
2022-12-23T15:16:02.135Z,9.57
2022-12-23T15:18:29.934Z,9.55
2022-12-23T15:21:04.690Z,9.55
2022-12-23T15:23:33.300Z,9.53
2022-12-23T15:26:02.414Z,9.53
2022-12-23T15:28:41.840Z,9.55
2022-12-23T15:31:42.698Z,9.56
2022-12-23T15:34:21.967Z,9.53
2022-12-23T15:36:54.450Z,9.51
2022-12-23T15:39:33.992Z,9.52
2022-12-23T15:42:01.877Z,9.52
2022-12-23T15:44:39.725Z,9.55
2022-12-23T15:47:38.615Z,9.56
2022-12-23T15:50:15.422Z,9.58
2022-12-23T15:52:47.531Z,9.58
2022-12-23T15:55:28.342Z,9.58
2022-12-23T15:57:56.858Z,9.57
2022-12-23T16:00:57.630Z,9.62
2022-12-23T16:03:39.025Z,9.64
2022-12-23T16:06:16.604Z,9.66
2022-12-23T16:08:45.747Z,9.67
2022-12-23T16:11:20.318Z,9.71
2022-12-23T16:14:00.455Z,9.74
2022-12-23T16:16:39.182Z,9.74
2022-12-23T16:19:49.082Z,9.76
2022-12-23T16:22:37.912Z,9.75
2022-12-23T16:25:16.176Z,9.76
2022-12-23T16:27:56.334Z,9.76
2022-12-23T16:30:32.390Z,9.79
2022-12-23T16:33:04.329Z,9.80
2022-12-23T16:35:40.400Z,9.85
2022-12-23T16:38:21.870Z,9.89
2022-12-23T16:40:55.590Z,9.93
2022-12-23T16:43:24.999Z,9.98
2022-12-23T16:45:56.785Z,10.04
2022-12-23T16:48:36.426Z,10.12
2022-12-23T16:51:20.288Z,10.21
2022-12-23T16:53:49.762Z,10.30
2022-12-23T16:56:20.894Z,10.39
2022-12-23T16:58:48.798Z,10.49
2022-12-23T17:01:23.022Z,10.58
2022-12-23T17:03:51.374Z,10.67
2022-12-23T17:06:20.678Z,10.75
2022-12-23T17:08:49.266Z,10.82
2022-12-23T17:11:42.103Z,10.90
2022-12-23T17:14:23.473Z,10.98
2022-12-23T17:16:51.683Z,11.02
2022-12-23T17:19:25.609Z,11.05
2022-12-23T17:22:02.687Z,11.12
2022-12-23T17:24:30.259Z,11.13
2022-12-23T17:26:58.189Z,11.16
2022-12-23T17:29:25.796Z,11.18
2022-12-23T17:31:53.617Z,11.20
2022-12-23T17:34:24.280Z,11.22
2022-12-23T17:36:52.835Z,11.24
2022-12-23T17:39:21.876Z,11.26
2022-12-23T17:41:49.934Z,11.26
2022-12-23T17:44:18.268Z,11.29
2022-12-23T17:46:47.118Z,11.31
2022-12-23T17:49:14.883Z,11.31
2022-12-23T17:51:43.175Z,11.34
2022-12-23T17:54:23.212Z,11.36
2022-12-23T17:56:51.434Z,11.36
2022-12-23T17:59:19.092Z,11.39
2022-12-23T18:01:46.857Z,11.43
2022-12-23T18:04:14.367Z,11.44
2022-12-23T18:06:41.947Z,11.46
2022-12-23T18:09:09.387Z,11.46
2022-12-23T18:11:43.759Z,11.48
2022-12-23T18:14:24.406Z,11.48
2022-12-23T18:16:51.855Z,11.48
2022-12-23T18:19:21.005Z,11.48
2022-12-23T18:21:51.069Z,11.47
2022-12-23T18:24:18.693Z,11.48
2022-12-23T18:26:47.499Z,11.47
2022-12-23T18:29:15.095Z,11.46
2022-12-23T18:31:52.081Z,11.47
2022-12-23T18:34:21.138Z,11.43
2022-12-23T18:36:51.365Z,11.44
2022-12-23T18:39:19.751Z,11.41
2022-12-23T18:41:48.626Z,11.39
2022-12-23T18:44:20.938Z,11.37
2022-12-23T18:46:49.582Z,11.34
2022-12-23T18:49:17.241Z,11.32
2022-12-23T18:51:45.271Z,11.28
2022-12-23T18:54:15.796Z,11.27
2022-12-23T18:56:43.548Z,11.23
2022-12-23T18:59:29.315Z,11.25
2022-12-23T19:01:58.749Z,11.19
2022-12-23T19:04:27.405Z,11.17
2022-12-23T19:06:56.696Z,11.16
2022-12-23T19:09:25.237Z,11.15
2022-12-23T19:11:54.316Z,11.13
2022-12-23T19:14:22.269Z,11.12
2022-12-23T19:16:52.434Z,11.12
2022-12-23T19:19:21.744Z,11.10
2022-12-23T19:21:49.328Z,11.08
2022-12-23T19:24:17.231Z,11.08
2022-12-23T19:26:44.897Z,11.06
2022-12-23T19:29:13.891Z,11.05
2022-12-23T19:31:41.416Z,11.05
2022-12-23T19:34:15.371Z,11.06
2022-12-23T19:36:44.238Z,11.04
2022-12-23T19:39:16.311Z,11.03
2022-12-23T19:41:45.321Z,11.03
2022-12-23T19:44:13.139Z,11.03
2022-12-23T19:46:40.825Z,11.04
2022-12-23T19:49:17.468Z,11.03
2022-12-23T19:51:47.539Z,11.08
2022-12-23T19:54:15.495Z,11.10
2022-12-23T19:56:43.063Z,11.10
2022-12-23T19:59:10.738Z,11.11
2022-12-23T20:01:38.195Z,11.12
2022-12-23T20:04:05.659Z,11.13
2022-12-23T20:06:38.252Z,11.13
2022-12-23T20:09:09.569Z,11.13
2022-12-23T20:11:42.477Z,11.16
2022-12-23T20:14:11.898Z,11.14
2022-12-23T20:16:40.422Z,11.15
2022-12-23T20:19:07.919Z,11.14
2022-12-23T20:21:37.358Z,11.12
2022-12-23T20:24:05.946Z,11.10
2022-12-23T20:26:33.830Z,11.06
2022-12-23T20:29:01.286Z,11.05
2022-12-23T20:31:32.365Z,11.02
2022-12-23T20:34:03.310Z,11.00
2022-12-23T20:36:35.490Z,10.96
2022-12-23T20:39:06.834Z,10.94
2022-12-23T20:41:34.986Z,10.93
2022-12-23T20:44:33.347Z,10.92
2022-12-23T20:46:50.353Z,10.91
2022-12-23T20:49:17.924Z,10.91
2022-12-23T20:51:45.431Z,10.92
2022-12-23T20:54:12.957Z,10.91
2022-12-23T20:56:40.518Z,10.91
2022-12-23T20:59:08.112Z,10.88
2022-12-23T21:01:39.445Z,10.89
2022-12-23T21:04:17.808Z,10.90
2022-12-23T21:06:45.628Z,10.87
2022-12-23T21:09:15.156Z,10.90
2022-12-23T21:11:49.190Z,10.87
2022-12-23T21:14:19.459Z,10.84
2022-12-23T21:16:47.133Z,10.84
2022-12-23T21:19:19.894Z,10.82
2022-12-23T21:21:48.707Z,10.80
2022-12-23T21:24:17.536Z,10.79
2022-12-23T21:26:49.029Z,10.77
2022-12-23T21:29:20.554Z,10.77
2022-12-23T21:31:48.129Z,10.75
2022-12-23T21:34:15.689Z,10.70
2022-12-23T21:36:43.795Z,10.66
2022-12-23T21:39:15.917Z,10.65
2022-12-23T21:41:43.775Z,10.64
2022-12-23T21:44:15.513Z,10.65
2022-12-23T21:46:43.225Z,10.64
2022-12-23T21:49:11.403Z,10.64
2022-12-23T21:51:41.063Z,10.63
2022-12-23T21:54:11.777Z,10.66
2022-12-23T21:56:41.016Z,10.65
2022-12-23T21:59:13.955Z,10.66
2022-12-23T22:01:43.539Z,10.65
2022-12-23T22:04:12.142Z,10.66
2022-12-23T22:06:44.756Z,10.67
2022-12-23T22:09:18.823Z,10.68
2022-12-23T22:11:48.036Z,10.66
2022-12-23T22:14:19.643Z,10.66
2022-12-23T22:16:47.301Z,10.69
2022-12-23T22:19:15.048Z,10.68
2022-12-23T22:22:12.173Z,10.69
2022-12-23T22:24:48.273Z,10.70
2022-12-23T22:27:15.920Z,10.71
2022-12-23T22:29:45.682Z,10.70
2022-12-23T22:32:13.213Z,10.73
2022-12-23T22:34:40.717Z,10.74
2022-12-23T22:37:08.248Z,10.72
2022-12-23T22:39:35.728Z,10.71
2022-12-23T22:42:03.223Z,10.67
2022-12-23T22:44:30.672Z,10.61
2022-12-23T22:46:58.325Z,10.58
2022-12-23T22:49:26.188Z,10.54
2022-12-23T22:51:53.784Z,10.52
2022-12-23T22:54:21.274Z,10.47
2022-12-23T22:56:48.829Z,10.45
2022-12-23T22:59:26.977Z,10.42
2022-12-23T23:01:56.894Z,10.40
2022-12-23T23:04:24.340Z,10.39
2022-12-23T23:06:51.882Z,10.39
2022-12-23T23:09:21.920Z,10.40
2022-12-23T23:11:50.454Z,10.41
2022-12-23T23:14:18.748Z,10.40
2022-12-23T23:16:46.345Z,10.41
2022-12-23T23:19:15.161Z,10.43
2022-12-23T23:21:42.776Z,10.41
2022-12-23T23:24:11.858Z,10.44
2022-12-23T23:26:39.430Z,10.44
2022-12-23T23:29:06.906Z,10.44
2022-12-23T23:31:43.362Z,10.46
2022-12-23T23:34:12.810Z,10.46
2022-12-23T23:36:41.604Z,10.46
2022-12-23T23:39:12.110Z,10.44
2022-12-23T23:41:41.073Z,10.42
2022-12-23T23:44:09.519Z,10.42
2022-12-23T23:46:38.038Z,10.40
2022-12-23T23:49:06.024Z,10.38
2022-12-23T23:51:33.483Z,10.39
2022-12-23T23:54:01.074Z,10.36
2022-12-23T23:56:33.867Z,10.36
2022-12-23T23:59:05.437Z,10.35
